createdAt,value
2022-12-03T00:00:38.636Z,2.47
2022-12-03T00:03:05.083Z,2.51
2022-12-03T00:05:32.366Z,2.53
2022-12-03T00:07:58.750Z,2.51
2022-12-03T00:10:25.077Z,2.44
2022-12-03T00:12:51.531Z,2.49
2022-12-03T00:15:18.126Z,2.44
2022-12-03T00:17:44.422Z,2.44
2022-12-03T00:20:18.220Z,2.44
2022-12-03T00:22:44.670Z,2.45
2022-12-03T00:25:11.000Z,2.63
2022-12-03T00:27:37.394Z,2.59
2022-12-03T00:30:04.895Z,2.56
2022-12-03T00:32:31.263Z,2.52
2022-12-03T00:34:57.628Z,2.48
2022-12-03T00:37:23.939Z,2.45
2022-12-03T00:39:50.451Z,2.49
2022-12-03T00:42:16.938Z,2.45
2022-12-03T00:44:43.611Z,2.47
2022-12-03T00:47:10.007Z,2.48
2022-12-03T00:49:36.618Z,2.53
2022-12-03T00:52:02.987Z,2.50
2022-12-03T00:54:32.089Z,2.50
2022-12-03T00:56:59.085Z,2.41
2022-12-03T00:59:25.570Z,2.45
2022-12-03T01:01:51.967Z,2.43
2022-12-03T01:04:18.653Z,2.47
2022-12-03T01:06:45.204Z,2.43
2022-12-03T01:09:11.626Z,2.47
2022-12-03T01:11:37.950Z,2.53
2022-12-03T01:14:13.936Z,2.47
2022-12-03T01:16:40.679Z,2.39
2022-12-03T01:19:09.023Z,2.40
2022-12-03T01:21:35.530Z,2.38
2022-12-03T01:24:02.539Z,2.35
2022-12-03T01:26:29.133Z,2.41
2022-12-03T01:28:55.588Z,2.41
2022-12-03T01:31:22.225Z,2.42
2022-12-03T01:33:48.589Z,2.45
2022-12-03T01:36:14.920Z,2.39
2022-12-03T01:38:41.276Z,2.45
2022-12-03T01:41:11.662Z,2.46
2022-12-03T01:43:38.604Z,2.41
2022-12-03T01:46:05.183Z,2.42
2022-12-03T01:48:35.516Z,2.49
2022-12-03T01:51:02.031Z,2.43
2022-12-03T01:53:28.459Z,2.44
2022-12-03T01:55:55.284Z,2.43
2022-12-03T01:58:27.161Z,2.46
2022-12-03T02:00:53.840Z,2.44
2022-12-03T02:03:25.313Z,2.43
2022-12-03T02:05:52.484Z,2.43
2022-12-03T02:08:33.383Z,2.44
2022-12-03T02:11:29.244Z,2.51
2022-12-03T02:14:01.689Z,2.44
2022-12-03T02:16:29.126Z,2.45
2022-12-03T02:18:57.213Z,2.47
2022-12-03T02:22:04.287Z,2.51
2022-12-03T02:24:58.290Z,2.54
2022-12-03T02:27:25.398Z,2.55
2022-12-03T02:29:51.971Z,2.52
2022-12-03T02:32:20.411Z,2.60
2022-12-03T02:34:46.844Z,2.59
2022-12-03T02:37:17.236Z,2.54
2022-12-03T02:39:50.292Z,2.55
2022-12-03T02:42:17.819Z,2.59
2022-12-03T02:44:44.280Z,2.58
2022-12-03T02:47:11.124Z,2.59
2022-12-03T02:49:37.525Z,2.68
2022-12-03T02:52:04.206Z,2.73
2022-12-03T02:54:31.190Z,2.64
2022-12-03T02:56:57.761Z,2.66
2022-12-03T02:59:24.750Z,2.60
2022-12-03T03:01:51.203Z,2.61
2022-12-03T03:04:17.723Z,2.55
2022-12-03T03:06:44.389Z,2.66
2022-12-03T03:09:10.805Z,2.59
2022-12-03T03:11:37.362Z,2.69
2022-12-03T03:14:04.221Z,2.69
2022-12-03T03:16:30.751Z,2.68
2022-12-03T03:18:57.120Z,2.68
2022-12-03T03:21:23.708Z,2.68
2022-12-03T03:23:52.426Z,2.77
2022-12-03T03:26:19.639Z,2.73
2022-12-03T03:28:50.788Z,2.77
2022-12-03T03:31:20.946Z,2.75
2022-12-03T03:33:49.316Z,2.72
2022-12-03T03:36:16.584Z,2.69
2022-12-03T03:38:43.972Z,2.66
2022-12-03T03:41:12.365Z,2.61
2022-12-03T03:43:40.362Z,2.56
2022-12-03T03:46:07.713Z,2.57
2022-12-03T03:48:35.308Z,2.61
2022-12-03T03:51:04.227Z,2.64
2022-12-03T03:53:30.958Z,2.67
2022-12-03T03:55:57.418Z,2.68
2022-12-03T03:58:23.891Z,2.67
2022-12-03T04:00:50.402Z,2.68
2022-12-03T04:03:16.811Z,2.73
2022-12-03T04:05:44.828Z,2.69
2022-12-03T04:08:11.288Z,2.68
2022-12-03T04:10:37.653Z,2.70
2022-12-03T04:13:04.899Z,2.73
2022-12-03T04:15:31.449Z,2.73
2022-12-03T04:17:57.780Z,2.76
2022-12-03T04:20:24.106Z,2.76
2022-12-03T04:22:50.715Z,2.68
2022-12-03T04:25:17.078Z,2.72
2022-12-03T04:27:45.381Z,2.75
2022-12-03T04:30:12.206Z,2.77
2022-12-03T04:32:38.744Z,2.78
2022-12-03T04:35:05.393Z,2.74
2022-12-03T04:37:32.066Z,2.73
2022-12-03T04:39:58.366Z,2.75
2022-12-03T04:42:25.011Z,2.83
2022-12-03T04:44:52.793Z,2.74
2022-12-03T04:47:21.316Z,2.79
2022-12-03T04:49:50.327Z,2.79
2022-12-03T04:52:19.091Z,2.76
2022-12-03T04:54:46.281Z,2.71
2022-12-03T04:57:13.092Z,2.69
2022-12-03T04:59:39.937Z,2.69
2022-12-03T05:02:07.117Z,2.78
2022-12-03T05:04:33.810Z,2.75
2022-12-03T05:07:00.169Z,2.75
2022-12-03T05:09:26.583Z,2.72
2022-12-03T05:11:52.905Z,2.72
2022-12-03T05:14:19.346Z,2.76
2022-12-03T05:16:45.971Z,2.81
2022-12-03T05:19:12.390Z,2.76
2022-12-03T05:21:38.744Z,2.73
2022-12-03T05:24:05.590Z,2.70
2022-12-03T05:26:31.934Z,2.75
2022-12-03T05:28:58.369Z,2.73
2022-12-03T05:31:24.846Z,2.74
2022-12-03T05:33:51.400Z,2.65
2022-12-03T05:36:17.819Z,2.65
2022-12-03T05:38:44.258Z,2.65
2022-12-03T05:41:10.722Z,2.63
2022-12-03T05:43:37.145Z,2.67
2022-12-03T05:46:03.550Z,2.63
2022-12-03T05:48:29.975Z,2.64
2022-12-03T05:50:56.291Z,2.65
2022-12-03T05:53:22.621Z,2.66
2022-12-03T05:55:48.949Z,2.61
2022-12-03T05:58:15.419Z,2.64
2022-12-03T06:00:43.040Z,2.66
2022-12-03T06:03:10.524Z,2.70
2022-12-03T06:05:37.239Z,2.58
2022-12-03T06:08:03.890Z,2.62
2022-12-03T06:10:30.379Z,2.51
2022-12-03T06:12:56.999Z,2.56
2022-12-03T06:15:23.933Z,2.47
2022-12-03T06:17:50.576Z,2.49
2022-12-03T06:20:19.355Z,2.50
2022-12-03T06:22:46.586Z,2.51
2022-12-03T06:25:13.819Z,2.49
2022-12-03T06:27:40.488Z,2.52
2022-12-03T06:30:08.137Z,2.60
2022-12-03T06:32:34.678Z,2.54
2022-12-03T06:35:01.179Z,2.52
2022-12-03T06:37:27.717Z,2.53
2022-12-03T06:39:54.107Z,2.53
2022-12-03T06:42:20.476Z,2.49
2022-12-03T06:44:46.859Z,2.55
2022-12-03T06:47:13.618Z,2.47
2022-12-03T06:49:40.014Z,2.44
2022-12-03T06:52:06.517Z,2.45
2022-12-03T06:54:33.062Z,2.50
2022-12-03T06:56:59.750Z,2.42
2022-12-03T06:59:26.104Z,2.51
2022-12-03T07:01:52.509Z,2.40
2022-12-03T07:04:21.173Z,2.39
2022-12-03T07:06:47.555Z,2.41
2022-12-03T07:09:15.127Z,2.34
2022-12-03T07:11:41.501Z,2.31
2022-12-03T07:14:09.013Z,2.38
2022-12-03T07:16:36.320Z,2.38
2022-12-03T07:19:04.279Z,2.36
2022-12-03T07:21:30.724Z,2.40
2022-12-03T07:23:59.592Z,2.31
2022-12-03T07:26:26.271Z,2.38
2022-12-03T07:28:52.714Z,2.38
2022-12-03T07:31:19.134Z,2.37
2022-12-03T07:33:46.469Z,2.39
2022-12-03T07:36:13.230Z,2.39
2022-12-03T07:38:39.914Z,2.33
2022-12-03T07:41:06.365Z,2.34
2022-12-03T07:43:36.227Z,2.31
2022-12-03T07:46:02.658Z,2.42
2022-12-03T07:48:29.072Z,2.29
2022-12-03T07:50:55.457Z,2.47
2022-12-03T07:53:21.830Z,2.46
2022-12-03T07:55:48.195Z,2.30
2022-12-03T07:58:14.894Z,2.38
2022-12-03T08:00:41.298Z,2.20
2022-12-03T08:03:08.032Z,2.19
2022-12-03T08:05:34.452Z,2.32
2022-12-03T08:08:01.861Z,2.29
2022-12-03T08:10:29.935Z,2.24
2022-12-03T08:12:59.000Z,2.26
2022-12-03T08:15:31.052Z,2.26
2022-12-03T08:18:04.894Z,2.27
2022-12-03T08:20:39.293Z,2.24
2022-12-03T08:23:14.648Z,2.26
2022-12-03T08:25:42.356Z,2.23
2022-12-03T08:28:19.493Z,2.26
2022-12-03T08:31:00.700Z,2.18
2022-12-03T08:33:37.159Z,2.20
2022-12-03T08:36:20.799Z,2.19
2022-12-03T08:39:29.851Z,2.32
2022-12-03T08:42:13.885Z,2.28
2022-12-03T08:44:40.844Z,2.26
2022-12-03T08:47:16.011Z,2.12
2022-12-03T08:49:47.388Z,2.16
2022-12-03T08:52:20.375Z,2.31
2022-12-03T08:54:55.709Z,2.33
2022-12-03T08:57:31.291Z,2.29
2022-12-03T09:00:26.631Z,2.18
2022-12-03T09:02:55.490Z,2.26
2022-12-03T09:05:27.370Z,2.31
2022-12-03T09:07:54.031Z,2.26
2022-12-03T09:10:20.890Z,2.20
2022-12-03T09:12:47.584Z,2.34
2022-12-03T09:15:15.969Z,2.26
2022-12-03T09:17:42.481Z,2.24
2022-12-03T09:20:09.244Z,2.18
2022-12-03T09:22:35.911Z,2.17
2022-12-03T09:25:04.872Z,2.15
2022-12-03T09:27:31.400Z,2.20
2022-12-03T09:29:58.002Z,2.24
2022-12-03T09:32:24.475Z,2.24
2022-12-03T09:34:53.921Z,2.19
2022-12-03T09:37:23.407Z,2.16
2022-12-03T09:39:50.213Z,2.26
2022-12-03T09:44:50.845Z,2.17
2022-12-03T09:47:18.182Z,2.18
2022-12-03T09:49:45.109Z,2.16
2022-12-03T09:52:17.989Z,2.14
2022-12-03T09:54:47.479Z,2.17
2022-12-03T09:57:15.347Z,2.18
2022-12-03T09:59:41.729Z,2.26
2022-12-03T10:02:24.808Z,2.25
2022-12-03T10:04:53.196Z,2.10
2022-12-03T10:07:20.215Z,2.03
2022-12-03T10:09:46.614Z,1.97
2022-12-03T10:12:14.930Z,1.87
2022-12-03T10:14:42.728Z,1.99
2022-12-03T10:17:11.586Z,2.02
2022-12-03T10:19:38.039Z,2.03
2022-12-03T10:22:04.338Z,1.91
2022-12-03T10:24:32.913Z,1.94
2022-12-03T10:27:24.527Z,1.92
2022-12-03T10:29:56.463Z,1.71
2022-12-03T10:32:43.933Z,1.82
2022-12-03T10:35:15.906Z,1.85
2022-12-03T10:38:05.427Z,1.84
2022-12-03T10:40:36.659Z,1.93
2022-12-03T10:43:20.474Z,1.88
2022-12-03T10:45:49.854Z,1.86
2022-12-03T10:48:17.855Z,1.98
2022-12-03T10:51:03.109Z,1.89
2022-12-03T10:53:31.829Z,1.97
2022-12-03T10:56:04.761Z,1.86
2022-12-03T10:58:35.408Z,1.92
2022-12-03T11:01:06.531Z,1.86
2022-12-03T11:03:36.755Z,1.80
2022-12-03T11:06:04.754Z,1.91
2022-12-03T11:08:35.641Z,1.95
2022-12-03T11:11:07.301Z,1.84
2022-12-03T11:13:33.866Z,1.87
2022-12-03T11:16:02.176Z,1.81
2022-12-03T11:18:58.525Z,1.78
2022-12-03T11:21:25.138Z,1.88
2022-12-03T11:23:51.621Z,1.74
2022-12-03T11:26:27.146Z,1.71
2022-12-03T11:28:55.917Z,1.78
2022-12-03T11:31:43.288Z,1.64
2022-12-03T11:34:18.873Z,1.69
2022-12-03T11:37:16.380Z,1.73
2022-12-03T11:39:52.449Z,1.76
2022-12-03T11:42:22.375Z,1.88
2022-12-03T11:45:08.648Z,1.95
2022-12-03T11:48:05.923Z,1.91
2022-12-03T11:50:54.367Z,1.91
2022-12-03T11:53:26.385Z,1.91
2022-12-03T11:56:04.415Z,1.86
2022-12-03T11:58:31.743Z,1.93
2022-12-03T12:01:01.037Z,1.90
2022-12-03T12:03:36.094Z,1.85
2022-12-03T12:06:20.120Z,1.88
2022-12-03T12:08:56.908Z,1.88
2022-12-03T12:11:38.153Z,1.94
2022-12-03T12:14:09.551Z,1.86
2022-12-03T12:16:49.379Z,1.82
2022-12-03T12:19:43.583Z,1.95
2022-12-03T12:22:28.790Z,1.97
2022-12-03T12:24:57.469Z,1.92
2022-12-03T12:27:35.027Z,1.91
2022-12-03T12:30:14.904Z,1.81
2022-12-03T12:32:47.601Z,1.84
2022-12-03T12:35:19.078Z,1.91
2022-12-03T12:37:58.557Z,1.96
2022-12-03T12:40:31.470Z,1.88
2022-12-03T12:43:02.108Z,1.82
2022-12-03T12:45:35.598Z,1.95
2022-12-03T12:48:25.290Z,1.98
2022-12-03T12:50:59.798Z,1.96
2022-12-03T12:53:32.091Z,1.93
2022-12-03T12:56:15.132Z,1.96
2022-12-03T12:58:41.833Z,1.99
2022-12-03T13:01:17.475Z,1.86
2022-12-03T13:03:43.854Z,1.97
2022-12-03T13:06:14.833Z,1.80
2022-12-03T13:08:44.980Z,1.86
2022-12-03T13:11:39.750Z,1.87
2022-12-03T13:14:13.115Z,1.82
2022-12-03T13:16:39.865Z,1.89
2022-12-03T13:19:19.653Z,2.02
2022-12-03T13:21:46.503Z,1.94
2022-12-03T13:24:50.883Z,1.94
2022-12-03T13:27:17.158Z,1.91
2022-12-03T13:29:51.409Z,1.80
2022-12-03T13:32:29.257Z,1.87
2022-12-03T13:35:06.059Z,1.87
2022-12-03T13:37:32.786Z,1.98
2022-12-03T13:40:27.471Z,1.97
2022-12-03T13:42:53.976Z,1.91
2022-12-03T13:45:29.475Z,1.87
2022-12-03T13:47:59.014Z,1.81
2022-12-03T13:50:36.504Z,1.82
2022-12-03T13:53:13.519Z,1.85
2022-12-03T13:55:44.233Z,1.75
2022-12-03T13:58:10.644Z,1.85
2022-12-03T14:00:37.015Z,1.76
2022-12-03T14:03:04.473Z,1.71
2022-12-03T14:05:30.987Z,1.67
2022-12-03T14:07:58.881Z,1.58
2022-12-03T14:10:25.538Z,1.62
2022-12-03T14:12:51.991Z,1.56
2022-12-03T14:15:18.350Z,1.49
2022-12-03T14:17:44.818Z,1.47
2022-12-03T14:20:11.736Z,1.48
2022-12-03T14:22:38.213Z,1.48
2022-12-03T14:25:06.083Z,1.50
2022-12-03T14:27:32.546Z,1.45
2022-12-03T14:29:59.492Z,1.46
2022-12-03T14:32:26.290Z,1.40
2022-12-03T14:34:52.697Z,1.41
2022-12-03T14:37:19.016Z,1.31
2022-12-03T14:39:45.365Z,1.36
2022-12-03T14:42:11.786Z,1.42
2022-12-03T14:44:38.218Z,1.44
2022-12-03T14:47:04.808Z,1.40
2022-12-03T14:49:31.235Z,1.35
2022-12-03T14:51:57.659Z,1.38
2022-12-03T14:54:24.266Z,1.42
2022-12-03T14:56:50.691Z,1.38
2022-12-03T14:59:17.219Z,1.35
2022-12-03T15:01:43.622Z,1.34
2022-12-03T15:06:51.699Z,1.28
2022-12-03T15:09:18.230Z,1.34
2022-12-03T15:11:46.380Z,1.26
2022-12-03T15:14:13.656Z,1.44
2022-12-03T15:16:40.910Z,1.29
2022-12-03T15:19:07.419Z,1.27
2022-12-03T15:21:34.026Z,1.25
2022-12-03T15:24:03.882Z,1.30
2022-12-03T15:26:30.328Z,1.27
2022-12-03T15:28:56.855Z,1.40
2022-12-03T15:31:23.455Z,1.29
2022-12-03T15:33:49.993Z,1.30
2022-12-03T15:36:16.597Z,1.31
2022-12-03T15:38:43.259Z,1.35
2022-12-03T15:41:09.828Z,1.32
2022-12-03T15:43:36.210Z,1.37
2022-12-03T15:46:02.619Z,1.39
2022-12-03T15:48:28.988Z,1.43
2022-12-03T15:50:55.351Z,1.37
2022-12-03T15:53:21.630Z,1.39
2022-12-03T15:55:47.925Z,1.33
2022-12-03T15:58:14.420Z,1.35
2022-12-03T16:00:41.000Z,1.39
2022-12-03T16:03:07.675Z,1.35
2022-12-03T16:05:34.129Z,1.35
2022-12-03T16:08:01.110Z,1.35
2022-12-03T16:10:27.672Z,1.30
2022-12-03T16:12:54.096Z,1.32
2022-12-03T16:15:26.466Z,1.37
2022-12-03T16:17:53.682Z,1.42
2022-12-03T16:20:20.020Z,1.31
2022-12-03T16:22:46.502Z,1.30
2022-12-03T16:25:12.936Z,1.27
2022-12-03T16:27:39.275Z,1.18
2022-12-03T16:30:07.284Z,1.26
2022-12-03T16:32:33.717Z,1.18
2022-12-03T16:35:00.136Z,1.16
2022-12-03T16:37:26.483Z,1.06
2022-12-03T16:39:53.143Z,1.11
2022-12-03T16:42:19.816Z,1.14
2022-12-03T16:44:46.170Z,1.15
2022-12-03T16:47:12.686Z,1.10
2022-12-03T16:49:39.047Z,1.14
2022-12-03T16:52:05.423Z,1.08
2022-12-03T16:54:31.761Z,1.02
2022-12-03T16:56:58.309Z,1.09
2022-12-03T16:59:24.614Z,1.07
2022-12-03T17:01:51.209Z,1.03
2022-12-03T17:04:17.652Z,1.10
2022-12-03T17:06:44.082Z,1.00
2022-12-03T17:09:10.452Z,0.92
2022-12-03T17:11:36.851Z,0.93
2022-12-03T17:14:03.375Z,0.95
2022-12-03T17:16:29.828Z,0.87
2022-12-03T17:18:56.201Z,1.02
2022-12-03T17:21:22.615Z,0.97
2022-12-03T17:23:48.996Z,1.03
2022-12-03T17:26:15.434Z,1.03
2022-12-03T17:28:42.508Z,0.93
2022-12-03T17:31:09.069Z,0.98
2022-12-03T17:33:36.225Z,0.88
2022-12-03T17:36:03.380Z,1.00
2022-12-03T17:38:34.152Z,1.03
2022-12-03T17:41:05.542Z,0.95
2022-12-03T17:43:32.014Z,0.88
2022-12-03T17:45:59.757Z,0.97
2022-12-03T17:48:26.457Z,0.97
2022-12-03T17:50:52.948Z,0.92
2022-12-03T17:53:19.381Z,0.98
2022-12-03T17:55:45.724Z,1.04
2022-12-03T17:58:12.249Z,0.96
2022-12-03T18:00:39.446Z,0.91
2022-12-03T18:03:05.855Z,0.89
2022-12-03T18:05:33.678Z,0.88
2022-12-03T18:08:00.478Z,0.96
2022-12-03T18:10:27.086Z,0.84
2022-12-03T18:12:58.309Z,0.89
2022-12-03T18:15:27.788Z,0.87
2022-12-03T18:17:54.232Z,0.85
2022-12-03T18:20:20.615Z,0.92
2022-12-03T18:22:47.062Z,0.86
2022-12-03T18:25:13.913Z,0.89
2022-12-03T18:27:40.415Z,0.81
2022-12-03T18:30:07.527Z,0.85
2022-12-03T18:32:34.014Z,0.92
2022-12-03T18:35:00.446Z,0.96
2022-12-03T18:37:29.342Z,0.89
2022-12-03T18:39:57.345Z,0.99
2022-12-03T18:42:24.577Z,0.88
2022-12-03T18:44:53.903Z,0.89
2022-12-03T18:47:23.556Z,0.85
2022-12-03T18:49:53.621Z,0.92
2022-12-03T18:52:22.161Z,0.88
2022-12-03T18:54:49.142Z,0.88
2022-12-03T18:57:15.831Z,0.93
2022-12-03T18:59:42.518Z,0.81
2022-12-03T19:02:26.653Z,0.90
2022-12-03T19:05:01.803Z,0.80
2022-12-03T19:07:28.270Z,0.79
2022-12-03T19:09:55.078Z,0.81
2022-12-03T19:12:21.835Z,0.82
2022-12-03T19:14:48.228Z,0.91
2022-12-03T19:17:14.653Z,0.84
2022-12-03T19:19:40.966Z,0.84
2022-12-03T19:22:11.622Z,0.79
2022-12-03T19:24:38.384Z,0.89
2022-12-03T19:27:04.840Z,0.89
2022-12-03T19:29:32.165Z,0.85
2022-12-03T19:31:58.585Z,0.79
2022-12-03T19:34:25.068Z,0.80
2022-12-03T19:36:51.991Z,0.82
2022-12-03T19:39:18.613Z,0.79
2022-12-03T19:41:45.229Z,0.83
2022-12-03T19:44:16.458Z,0.78
2022-12-03T19:46:43.538Z,0.88
2022-12-03T19:49:10.719Z,0.87
2022-12-03T19:51:37.228Z,0.85
2022-12-03T19:54:05.393Z,0.86
2022-12-03T19:56:31.944Z,0.81
2022-12-03T19:58:58.759Z,0.80
2022-12-03T20:01:27.935Z,0.80
2022-12-03T20:03:57.366Z,0.82
2022-12-03T20:06:27.909Z,0.84
2022-12-03T20:09:00.966Z,0.85
2022-12-03T20:11:31.564Z,0.82
2022-12-03T20:14:04.364Z,0.83
2022-12-03T20:16:32.496Z,0.80
2022-12-03T20:19:01.871Z,0.79
2022-12-03T20:21:30.879Z,0.77
2022-12-03T20:23:57.686Z,0.84
2022-12-03T20:26:25.168Z,0.86
2022-12-03T20:28:53.465Z,0.87
2022-12-03T20:31:22.365Z,0.86
2022-12-03T20:33:52.054Z,0.97
2022-12-03T20:36:20.388Z,0.82
2022-12-03T20:38:47.242Z,0.79
2022-12-03T20:41:16.119Z,0.85
2022-12-03T20:43:42.658Z,0.77
2022-12-03T20:46:16.827Z,0.78
2022-12-03T20:48:44.361Z,0.74
2022-12-03T20:51:13.938Z,0.78
2022-12-03T20:53:41.582Z,0.80
2022-12-03T20:56:09.119Z,0.79
2022-12-03T20:58:36.235Z,0.80
2022-12-03T21:01:16.216Z,0.75
2022-12-03T21:03:44.253Z,0.70
2022-12-03T21:06:11.604Z,0.68
2022-12-03T21:08:42.023Z,0.71
2022-12-03T21:11:14.821Z,0.74
2022-12-03T21:13:42.237Z,0.60
2022-12-03T21:16:10.773Z,0.71
2022-12-03T21:18:37.611Z,0.65
2022-12-03T21:21:05.167Z,0.62
2022-12-03T21:23:32.864Z,0.60
2022-12-03T21:26:04.907Z,0.60
2022-12-03T21:28:31.543Z,0.62
2022-12-03T21:31:03.520Z,0.72
2022-12-03T21:33:30.318Z,0.66
2022-12-03T21:35:57.158Z,0.63
2022-12-03T21:38:24.532Z,0.69
2022-12-03T21:40:51.156Z,0.77
2022-12-03T21:43:17.712Z,0.71
2022-12-03T21:45:44.624Z,0.71
2022-12-03T21:48:11.055Z,0.75
2022-12-03T21:50:37.405Z,0.65
2022-12-03T21:53:03.872Z,0.65
2022-12-03T21:55:30.246Z,0.65
2022-12-03T21:57:56.668Z,0.56
2022-12-03T22:00:23.186Z,0.60
2022-12-03T22:02:49.579Z,0.61
2022-12-03T22:05:16.191Z,0.68
2022-12-03T22:07:42.764Z,0.69
2022-12-03T22:10:11.039Z,0.58
2022-12-03T22:12:38.693Z,0.59
2022-12-03T22:15:05.566Z,0.60
2022-12-03T22:17:31.924Z,0.67
2022-12-03T22:19:58.333Z,0.59
2022-12-03T22:22:24.734Z,0.65
2022-12-03T22:24:52.133Z,0.54
2022-12-03T22:27:18.465Z,0.52
2022-12-03T22:29:44.844Z,0.57
2022-12-03T22:32:11.412Z,0.60
2022-12-03T22:34:37.747Z,0.50
2022-12-03T22:37:04.490Z,0.55
2022-12-03T22:39:30.848Z,0.55
2022-12-03T22:41:57.207Z,0.50
2022-12-03T22:44:24.760Z,0.51
2022-12-03T22:46:51.267Z,0.59
2022-12-03T22:49:17.942Z,0.63
2022-12-03T22:51:45.714Z,0.56
2022-12-03T22:54:12.191Z,0.67
2022-12-03T22:56:38.592Z,0.62
2022-12-03T22:59:05.482Z,0.68
2022-12-03T23:01:34.869Z,0.65
2022-12-03T23:04:02.154Z,0.64
2022-12-03T23:06:29.997Z,0.67
2022-12-03T23:08:57.738Z,0.58
2022-12-03T23:11:24.280Z,0.60
2022-12-03T23:13:51.111Z,0.68
2022-12-03T23:16:29.766Z,0.66
2022-12-03T23:19:01.074Z,0.78
2022-12-03T23:21:30.592Z,0.70
2022-12-03T23:23:59.355Z,0.68
2022-12-03T23:26:28.245Z,0.66
2022-12-03T23:28:55.003Z,0.62
2022-12-03T23:31:27.151Z,0.63
2022-12-03T23:33:53.944Z,0.67
2022-12-03T23:36:21.512Z,0.65
2022-12-03T23:38:48.107Z,0.66
2022-12-03T23:41:16.869Z,0.61
2022-12-03T23:43:43.730Z,0.68
2022-12-03T23:46:16.352Z,0.68
2022-12-03T23:48:43.545Z,0.65
2022-12-03T23:51:14.724Z,0.68
2022-12-03T23:53:42.406Z,0.68
2022-12-03T23:56:17.754Z,0.71
2022-12-03T23:58:45.108Z,0.73
